Council Hill, Oklahoma
Current Conditions -  °F | °C
As of 1:53 AM on Sunday 26 Oct 2014 (Local Time) from KMKO Reporting Station
Clear Clear  
Wind Chill: 63°   Ceiling: Unl
Heat Index: 63°   Visibility: 9mi
Dew Point: 61°   Wind: 6mph
Humidity: 93%   Direction: 170°S
Pressure: 29.99"   Gusts: NA
Location:  35.56°N, 95.65°W
Report Text: KMKO 260653Z AUTO 17005KT 9SM CLR 17/16 A2999 RMK AO2 SLP148 T01720161
Loading
Personal Weather Stations






























Interactive Weather Map New forecast layout! Learn more

10-Day Weather Forecast

Advertisements
Track Severe Weather on mobile